createdAt,value
2018-04-26T00:02:06.145Z,33.20
2018-04-26T00:04:33.756Z,16.97
2018-04-26T00:07:01.376Z,23.83
2018-04-26T00:09:29.021Z,25.73
2018-04-26T00:11:56.659Z,22.07
2018-04-26T00:14:24.249Z,18.93
2018-04-26T00:16:51.985Z,15.70
2018-04-26T00:19:19.611Z,27.53
2018-04-26T00:21:48.133Z,26.50
2018-04-26T00:24:15.752Z,27.17
2018-04-26T00:26:43.341Z,19.97
2018-04-26T00:29:11.133Z,26.17
2018-04-26T00:31:38.731Z,27.17
2018-04-26T00:34:07.892Z,23.40
2018-04-26T00:36:36.164Z,19.03
2018-04-26T00:39:03.858Z,22.80
2018-04-26T00:41:31.492Z,21.73
2018-04-26T00:43:59.104Z,23.50
2018-04-26T00:46:26.698Z,20.97
2018-04-26T00:48:54.328Z,16.80
2018-04-26T00:51:33.825Z,21.23
2018-04-26T00:54:01.433Z,24.97
2018-04-26T00:56:29.022Z,18.97
2018-04-26T00:58:56.680Z,22.60
2018-04-26T01:01:25.036Z,24.57
2018-04-26T01:03:52.648Z,26.07
2018-04-26T01:06:20.297Z,18.17
2018-04-26T01:08:48.093Z,21.23
2018-04-26T01:11:15.692Z,16.40
2018-04-26T01:13:43.325Z,18.53
2018-04-26T01:16:11.092Z,16.00
2018-04-26T01:18:38.713Z,18.60
2018-04-26T01:21:08.836Z,22.70
2018-04-26T01:23:37.204Z,20.30
2018-04-26T01:26:06.363Z,24.67
2018-04-26T01:28:34.128Z,20.10
2018-04-26T01:31:01.737Z,26.60
2018-04-26T01:33:29.358Z,22.03
2018-04-26T01:35:56.968Z,21.47
2018-04-26T01:38:24.589Z,13.83
2018-04-26T01:40:52.241Z,20.67
2018-04-26T01:43:19.917Z,26.07
2018-04-26T01:45:51.150Z,19.13
2018-04-26T01:48:20.271Z,21.67
2018-04-26T01:50:47.875Z,22.20
2018-04-26T01:53:16.228Z,18.30
2018-04-26T01:55:43.843Z,22.33
2018-04-26T01:58:11.478Z,22.37
2018-04-26T02:00:39.870Z,24.90
2018-04-26T02:03:07.491Z,18.80
2018-04-26T02:05:35.104Z,21.27
2018-04-26T02:08:03.496Z,19.70
2018-04-26T02:10:31.133Z,18.27
2018-04-26T02:12:58.774Z,28.20
2018-04-26T02:15:26.380Z,22.33
2018-04-26T02:17:54.056Z,22.73
2018-04-26T02:20:21.721Z,27.73
2018-04-26T02:22:49.320Z,28.53
2018-04-26T02:25:16.917Z,20.60
2018-04-26T02:27:44.537Z,21.30
2018-04-26T02:30:12.303Z,22.13
2018-04-26T02:32:39.938Z,18.17
2018-04-26T02:35:08.161Z,16.20
2018-04-26T02:37:35.816Z,14.70
2018-04-26T02:40:03.473Z,18.03
2018-04-26T02:42:31.105Z,13.57
2018-04-26T02:44:58.733Z,15.93
2018-04-26T02:47:26.369Z,20.97
2018-04-26T02:49:53.953Z,19.57
2018-04-26T02:52:21.616Z,14.10
2018-04-26T02:54:49.480Z,15.53
2018-04-26T02:57:17.117Z,15.03
2018-04-26T02:59:44.790Z,13.13
2018-04-26T03:02:12.484Z,12.97
2018-04-26T03:04:40.117Z,10.67
2018-04-26T03:07:07.786Z,9.97
2018-04-26T03:09:35.881Z,15.77
2018-04-26T03:12:03.554Z,10.73
2018-04-26T03:14:31.176Z,16.77
2018-04-26T03:16:58.796Z,11.50
2018-04-26T03:19:27.148Z,9.40
2018-04-26T03:21:54.773Z,13.87
2018-04-26T03:24:22.369Z,14.47
2018-04-26T03:26:49.974Z,6.63
2018-04-26T03:29:18.375Z,12.97
2018-04-26T03:31:46.006Z,13.30
2018-04-26T03:34:13.634Z,14.27
2018-04-26T03:36:41.264Z,12.47
2018-04-26T03:39:08.864Z,16.73
2018-04-26T03:41:36.501Z,14.63
2018-04-26T03:44:04.157Z,11.17
2018-04-26T03:46:31.776Z,15.77
2018-04-26T03:48:59.391Z,15.37
2018-04-26T03:51:27.046Z,18.20
2018-04-26T03:53:55.395Z,19.17
2018-04-26T03:56:23.046Z,12.80
2018-04-26T03:58:51.469Z,17.50
2018-04-26T04:01:31.609Z,12.60
2018-04-26T04:04:11.052Z,11.43
2018-04-26T04:06:39.405Z,18.37
2018-04-26T04:09:06.999Z,12.60
2018-04-26T04:11:35.391Z,17.20
2018-04-26T04:14:02.971Z,21.63
2018-04-26T04:16:30.560Z,21.63
2018-04-26T04:18:58.180Z,14.70
2018-04-26T04:21:25.817Z,21.33
2018-04-26T04:23:53.405Z,17.37
2018-04-26T04:26:21.829Z,24.57
2018-04-26T04:28:49.515Z,17.80
2018-04-26T04:31:17.933Z,27.53
2018-04-26T04:33:46.330Z,15.97
2018-04-26T04:36:13.996Z,17.73
2018-04-26T04:38:42.392Z,20.30
2018-04-26T04:41:10.009Z,18.67
2018-04-26T04:43:37.639Z,21.90
2018-04-26T04:46:05.234Z,17.60
2018-04-26T04:48:32.892Z,16.07
2018-04-26T04:51:00.480Z,18.50
2018-04-26T04:53:28.112Z,17.37
2018-04-26T04:55:55.736Z,24.03
2018-04-26T04:58:23.370Z,17.87
2018-04-26T05:00:51.771Z,18.07
2018-04-26T05:03:19.359Z,17.30
2018-04-26T05:05:46.992Z,18.17
2018-04-26T05:08:14.608Z,13.83
2018-04-26T05:10:42.235Z,16.20
2018-04-26T05:13:09.916Z,15.40
2018-04-26T05:15:37.509Z,18.60
2018-04-26T05:18:05.154Z,17.67
2018-04-26T05:20:32.856Z,14.03
2018-04-26T05:23:00.530Z,16.60
2018-04-26T05:25:28.896Z,19.20
2018-04-26T05:27:56.523Z,18.63
2018-04-26T05:30:24.200Z,18.17
2018-04-26T05:32:51.817Z,23.93
2018-04-26T05:35:19.415Z,19.47
2018-04-26T05:37:47.153Z,23.83
2018-04-26T05:40:14.813Z,12.83
2018-04-26T05:42:43.398Z,15.07
2018-04-26T05:45:11.802Z,15.23
2018-04-26T05:47:39.927Z,16.20
2018-04-26T05:50:07.610Z,16.83
2018-04-26T05:52:36.096Z,19.40
2018-04-26T05:55:04.575Z,19.77
2018-04-26T05:57:33.853Z,18.67
2018-04-26T06:00:01.532Z,22.07
2018-04-26T06:02:30.464Z,18.47
2018-04-26T06:04:58.271Z,20.03
2018-04-26T06:07:25.921Z,21.87
2018-04-26T06:09:53.589Z,12.87
2018-04-26T06:12:21.889Z,20.47
2018-04-26T06:14:49.655Z,17.00
2018-04-26T06:17:17.379Z,16.47
2018-04-26T06:19:46.213Z,18.37
2018-04-26T06:22:14.041Z,16.60
2018-04-26T06:24:41.835Z,13.70
2018-04-26T06:27:09.807Z,21.43
2018-04-26T06:29:37.547Z,18.50
2018-04-26T06:32:05.135Z,19.80
2018-04-26T06:34:33.740Z,21.10
2018-04-26T06:37:01.994Z,16.43
2018-04-26T06:39:29.757Z,14.60
2018-04-26T06:41:57.424Z,17.00
2018-04-26T06:44:25.539Z,17.37
2018-04-26T06:46:53.949Z,16.27
2018-04-26T06:49:21.583Z,14.40
2018-04-26T06:51:49.309Z,14.83
2018-04-26T06:54:16.919Z,13.43
2018-04-26T06:56:44.552Z,12.13
2018-04-26T06:59:12.330Z,19.23
2018-04-26T07:01:41.418Z,12.87
2018-04-26T07:04:09.839Z,15.13
2018-04-26T07:06:37.554Z,21.53
2018-04-26T07:09:06.125Z,19.33
2018-04-26T07:11:33.712Z,15.60
2018-04-26T07:14:01.370Z,15.23
2018-04-26T07:16:28.955Z,20.93
2018-04-26T07:18:56.581Z,14.17
2018-04-26T07:21:24.198Z,13.53
2018-04-26T07:23:51.916Z,10.43
2018-04-26T07:26:19.549Z,15.70
2018-04-26T07:28:47.176Z,11.03
2018-04-26T07:31:16.328Z,13.33
2018-04-26T07:33:43.946Z,9.43
2018-04-26T07:36:11.602Z,14.50
2018-04-26T07:38:39.256Z,11.03
2018-04-26T07:41:06.901Z,8.13
2018-04-26T07:43:34.540Z,12.27
2018-04-26T07:46:03.072Z,7.97
2018-04-26T07:48:30.687Z,8.47
2018-04-26T07:50:58.349Z,8.53
2018-04-26T07:53:27.457Z,6.23
2018-04-26T07:55:55.258Z,9.13
2018-04-26T07:58:22.892Z,10.17
2018-04-26T08:00:50.505Z,10.27
2018-04-26T08:03:18.959Z,8.07
2018-04-26T08:05:46.724Z,11.27
2018-04-26T08:08:15.046Z,10.90
2018-04-26T08:10:44.564Z,18.03
2018-04-26T08:13:13.338Z,17.30
2018-04-26T08:15:42.617Z,17.30
2018-04-26T08:18:10.295Z,13.47
2018-04-26T08:20:38.076Z,18.20
2018-04-26T08:23:06.053Z,15.03
2018-04-26T08:25:35.145Z,18.67
2018-04-26T08:28:02.899Z,10.67
2018-04-26T08:30:31.518Z,14.60
2018-04-26T08:32:59.137Z,13.77
2018-04-26T08:35:26.823Z,13.43
2018-04-26T08:37:54.886Z,12.33
2018-04-26T08:40:22.569Z,11.47
2018-04-26T08:42:50.160Z,14.20
2018-04-26T08:45:18.713Z,17.33
2018-04-26T08:47:46.444Z,15.37
2018-04-26T08:50:14.952Z,15.17
2018-04-26T08:52:44.970Z,11.37
2018-04-26T08:55:14.307Z,11.53
2018-04-26T08:57:42.635Z,19.93
2018-04-26T09:00:10.328Z,12.90
2018-04-26T09:02:38.455Z,18.63
2018-04-26T09:05:07.125Z,15.80
2018-04-26T09:07:37.286Z,17.97
2018-04-26T09:10:05.027Z,11.43
2018-04-26T09:12:32.700Z,18.13
2018-04-26T09:15:00.376Z,11.80
2018-04-26T09:17:28.155Z,15.47
2018-04-26T09:19:55.870Z,13.23
2018-04-26T09:22:24.295Z,14.43
2018-04-26T09:24:51.898Z,10.63
2018-04-26T09:27:19.512Z,5.13
2018-04-26T09:29:49.448Z,6.00
2018-04-26T09:32:17.252Z,8.07
2018-04-26T09:34:45.651Z,9.83
2018-04-26T09:37:14.161Z,9.03
2018-04-26T09:39:42.480Z,14.63
2018-04-26T09:42:10.189Z,11.10
2018-04-26T09:44:37.843Z,9.70
2018-04-26T09:47:06.213Z,11.83
2018-04-26T09:49:33.844Z,9.20
2018-04-26T09:52:01.747Z,8.53
2018-04-26T09:54:29.432Z,13.07
2018-04-26T09:56:57.113Z,11.40
2018-04-26T09:59:29.420Z,12.37
2018-04-26T10:02:03.038Z,8.50
2018-04-26T10:04:37.055Z,16.70
2018-04-26T10:07:06.184Z,11.60
2018-04-26T10:09:33.821Z,11.33
2018-04-26T10:12:01.732Z,10.67
2018-04-26T10:14:29.535Z,15.83
2018-04-26T10:17:00.474Z,10.53
2018-04-26T10:19:30.300Z,12.80
2018-04-26T10:22:01.019Z,14.43
2018-04-26T10:24:28.656Z,10.10
2018-04-26T10:26:56.252Z,14.20
2018-04-26T10:29:23.872Z,10.30
2018-04-26T10:31:52.288Z,10.83
2018-04-26T10:34:19.876Z,12.50
2018-04-26T10:36:47.948Z,13.07
2018-04-26T10:39:18.873Z,10.07
2018-04-26T10:41:46.792Z,9.77
2018-04-26T10:44:14.538Z,9.13
2018-04-26T10:46:42.184Z,8.93
2018-04-26T10:49:09.811Z,9.90
2018-04-26T10:51:37.432Z,11.23
2018-04-26T10:54:05.538Z,7.40
2018-04-26T10:56:33.264Z,9.07
2018-04-26T10:59:01.711Z,11.20
2018-04-26T11:01:29.533Z,10.90
2018-04-26T11:03:57.290Z,10.93
2018-04-26T11:06:25.691Z,13.23
2018-04-26T11:08:53.308Z,7.90
2018-04-26T11:11:21.229Z,6.87
2018-04-26T11:13:49.252Z,10.07
2018-04-26T11:16:16.910Z,10.53
2018-04-26T11:18:44.492Z,8.40
2018-04-26T11:21:12.170Z,8.07
2018-04-26T11:23:39.732Z,12.97
2018-04-26T11:26:10.256Z,9.63
2018-04-26T11:28:37.913Z,7.00
2018-04-26T11:31:06.415Z,5.40
2018-04-26T11:33:34.062Z,10.37
2018-04-26T11:36:01.694Z,8.93
2018-04-26T11:38:29.985Z,7.33
2018-04-26T11:40:57.733Z,12.20
2018-04-26T11:43:26.351Z,9.97
2018-04-26T11:45:53.988Z,13.03
2018-04-26T11:48:21.867Z,10.13
2018-04-26T11:50:50.409Z,9.70
2018-04-26T11:53:18.239Z,12.63
2018-04-26T11:55:46.073Z,5.33
2018-04-26T11:58:13.788Z,7.67
2018-04-26T12:00:42.532Z,8.17
2018-04-26T12:03:10.211Z,12.93
2018-04-26T12:05:37.934Z,8.30
2018-04-26T12:08:08.446Z,9.77
2018-04-26T12:10:37.205Z,9.83
2018-04-26T12:13:06.109Z,10.77
2018-04-26T12:15:33.724Z,11.97
2018-04-26T12:18:02.190Z,13.50
2018-04-26T12:20:30.584Z,7.57
2018-04-26T12:23:00.252Z,10.73
2018-04-26T12:25:27.893Z,10.10
2018-04-26T12:27:55.515Z,7.83
2018-04-26T12:30:24.016Z,10.73
2018-04-26T12:32:52.448Z,8.20
2018-04-26T12:35:20.973Z,6.93
2018-04-26T12:37:48.568Z,7.17
2018-04-26T12:40:16.201Z,7.07
2018-04-26T12:42:44.567Z,6.97
2018-04-26T12:45:12.977Z,8.00
2018-04-26T12:47:41.337Z,9.60
2018-04-26T12:50:09.125Z,6.37
2018-04-26T12:52:37.284Z,5.23
2018-04-26T12:55:05.212Z,5.00
2018-04-26T12:57:33.055Z,9.27
2018-04-26T13:00:00.707Z,8.77
2018-04-26T13:02:30.089Z,8.50
2018-04-26T13:04:59.827Z,9.97
2018-04-26T13:07:28.272Z,10.73
2018-04-26T13:09:55.917Z,7.37
2018-04-26T13:12:23.812Z,9.47
2018-04-26T13:14:51.562Z,15.30
2018-04-26T13:17:19.768Z,15.30
2018-04-26T13:19:47.688Z,8.60
2018-04-26T13:22:15.521Z,12.63
2018-04-26T13:24:43.937Z,8.23
2018-04-26T13:27:12.725Z,8.63
2018-04-26T13:29:42.031Z,6.17
2018-04-26T13:32:09.764Z,6.97
2018-04-26T13:34:38.712Z,8.93
2018-04-26T13:37:09.165Z,11.07
2018-04-26T13:39:36.841Z,10.77
2018-04-26T13:42:04.604Z,10.47
2018-04-26T13:44:33.217Z,7.80
2018-04-26T13:47:01.697Z,8.53
2018-04-26T13:49:30.285Z,7.57
2018-04-26T13:51:58.918Z,5.37
2018-04-26T13:54:26.590Z,5.07
2018-04-26T13:56:54.478Z,7.37
2018-04-26T13:59:22.235Z,6.60
2018-04-26T14:01:49.921Z,6.40
2018-04-26T14:04:18.338Z,7.17
2018-04-26T14:06:46.014Z,8.07
2018-04-26T14:09:13.665Z,7.93
2018-04-26T14:11:42.181Z,6.13
2018-04-26T14:14:10.343Z,8.50
2018-04-26T14:16:37.992Z,7.17
2018-04-26T14:19:05.661Z,4.13
2018-04-26T14:21:33.291Z,4.97
2018-04-26T14:24:02.571Z,3.47
2018-04-26T14:26:30.256Z,6.37
2018-04-26T14:28:57.844Z,5.60
2018-04-26T14:31:25.505Z,6.73
2018-04-26T14:33:53.168Z,4.73
2018-04-26T14:36:20.798Z,4.80
2018-04-26T14:38:48.440Z,6.57
2018-04-26T14:41:16.069Z,3.70
2018-04-26T14:43:43.737Z,6.30
2018-04-26T14:46:11.577Z,6.53
2018-04-26T14:48:40.016Z,7.10
2018-04-26T14:51:07.621Z,4.63
2018-04-26T14:53:35.258Z,4.97
2018-04-26T14:56:02.894Z,6.60
2018-04-26T14:58:30.555Z,10.07
2018-04-26T15:00:58.156Z,7.27
2018-04-26T15:03:25.794Z,8.53
2018-04-26T15:05:53.609Z,8.67
2018-04-26T15:08:21.330Z,4.87
2018-04-26T15:10:49.242Z,10.03
2018-04-26T15:13:17.676Z,7.43
2018-04-26T15:15:45.326Z,7.33
2018-04-26T15:18:12.934Z,5.80
2018-04-26T15:20:40.564Z,4.13
2018-04-26T15:23:08.170Z,7.03
2018-04-26T15:25:35.846Z,7.07
2018-04-26T15:28:03.876Z,4.43
2018-04-26T15:30:31.518Z,6.63
2018-04-26T15:32:59.109Z,5.47
2018-04-26T15:35:26.709Z,3.83
2018-04-26T15:37:54.324Z,5.80
2018-04-26T15:40:22.327Z,8.57
2018-04-26T15:42:49.964Z,6.80
2018-04-26T15:45:17.595Z,8.57
2018-04-26T15:47:46.234Z,7.70
2018-04-26T15:50:14.641Z,6.03
2018-04-26T15:53:00.024Z,4.53
2018-04-26T15:55:41.446Z,5.07
2018-04-26T16:01:38.803Z,4.00
2018-04-26T16:04:18.342Z,7.97
2018-04-26T16:10:20.638Z,5.60
2018-04-26T16:13:05.923Z,6.60
2018-04-26T16:18:56.375Z,8.73
2018-04-26T16:21:36.650Z,7.90
2018-04-26T16:24:34.823Z,6.33
2018-04-26T16:27:20.058Z,4.77
2018-04-26T16:29:59.700Z,9.13
2018-04-26T16:32:39.639Z,6.57
2018-04-26T16:35:21.664Z,7.67
2018-04-26T16:38:07.876Z,6.40
2018-04-26T16:40:36.314Z,8.10
2018-04-26T16:43:04.065Z,6.53
2018-04-26T16:45:32.293Z,4.13
2018-04-26T16:47:59.989Z,5.87
2018-04-26T16:50:27.743Z,5.47
2018-04-26T16:52:56.140Z,8.17
2018-04-26T16:55:23.801Z,7.27
2018-04-26T16:57:51.489Z,5.93
2018-04-26T17:00:19.185Z,6.57
2018-04-26T17:02:46.840Z,5.97
2018-04-26T17:05:14.527Z,5.63
2018-04-26T17:07:42.915Z,7.00
2018-04-26T17:10:10.647Z,8.13
2018-04-26T17:12:38.501Z,8.07
2018-04-26T17:15:06.117Z,9.10
2018-04-26T17:17:33.733Z,4.67
2018-04-26T17:20:01.386Z,7.03
2018-04-26T17:22:29.097Z,8.33
2018-04-26T17:24:56.831Z,11.77
2018-04-26T17:27:24.432Z,6.03
2018-04-26T17:29:52.093Z,6.43
2018-04-26T17:32:20.568Z,6.23
2018-04-26T17:34:48.287Z,7.03
2018-04-26T17:37:15.840Z,5.80
2018-04-26T17:39:43.485Z,7.47
2018-04-26T17:42:11.933Z,7.10
2018-04-26T17:44:40.332Z,4.67
2018-04-26T17:47:08.063Z,7.43
2018-04-26T17:49:35.714Z,7.47
2018-04-26T17:52:04.342Z,8.20
2018-04-26T17:54:32.279Z,6.27
2018-04-26T17:56:59.925Z,5.73
2018-04-26T17:59:27.614Z,6.17
2018-04-26T18:01:55.456Z,6.07
2018-04-26T18:04:23.127Z,5.83
2018-04-26T18:06:50.994Z,8.73
2018-04-26T18:09:19.134Z,6.40
2018-04-26T18:11:48.772Z,8.47
2018-04-26T18:14:16.456Z,8.47
2018-04-26T18:16:44.116Z,6.23
2018-04-26T18:19:14.922Z,9.90
2018-04-26T18:21:43.294Z,5.53
2018-04-26T18:24:11.029Z,4.57
2018-04-26T18:26:38.652Z,10.33
2018-04-26T18:29:06.345Z,9.23
2018-04-26T18:31:34.305Z,6.23
2018-04-26T18:34:02.063Z,6.40
2018-04-26T18:36:29.776Z,7.87
2018-04-26T18:38:58.781Z,10.03
2018-04-26T18:41:27.233Z,10.47
2018-04-26T18:43:54.962Z,9.03
2018-04-26T18:46:22.710Z,8.57
2018-04-26T18:48:51.263Z,11.67
2018-04-26T18:51:19.838Z,4.47
2018-04-26T18:53:49.518Z,9.13
2018-04-26T18:56:17.666Z,6.77
2018-04-26T18:58:47.189Z,6.03
2018-04-26T19:01:15.594Z,7.37
2018-04-26T19:03:43.303Z,6.63
2018-04-26T19:06:11.024Z,9.57
2018-04-26T19:08:39.577Z,7.27
2018-04-26T19:11:07.341Z,8.83
2018-04-26T19:13:36.070Z,7.77
2018-04-26T19:16:03.856Z,7.80
2018-04-26T19:18:31.526Z,8.73
2018-04-26T19:20:59.326Z,8.50
2018-04-26T19:23:26.992Z,9.43
2018-04-26T19:25:54.914Z,8.83
2018-04-26T19:28:22.781Z,8.30
2018-04-26T19:30:51.076Z,5.03
2018-04-26T19:33:18.842Z,6.27
2018-04-26T19:35:46.488Z,8.63
2018-04-26T19:38:15.164Z,8.70
2018-04-26T19:40:42.806Z,6.87
2018-04-26T19:43:10.658Z,7.27
2018-04-26T19:45:38.353Z,7.03
2018-04-26T19:48:06.852Z,4.90
2018-04-26T19:50:34.492Z,4.30
2018-04-26T19:53:03.354Z,4.97
2018-04-26T19:55:31.065Z,6.60
2018-04-26T19:57:58.764Z,5.83
2018-04-26T20:00:28.419Z,3.37
2018-04-26T20:02:56.158Z,9.00
2018-04-26T20:05:23.923Z,6.03
2018-04-26T20:07:52.341Z,9.73
2018-04-26T20:10:19.996Z,6.20
2018-04-26T20:12:47.631Z,8.17
2018-04-26T20:15:15.383Z,8.73
2018-04-26T20:17:43.443Z,7.33
2018-04-26T20:20:11.098Z,8.83
2018-04-26T20:22:39.100Z,4.90
2018-04-26T20:25:06.967Z,7.17
2018-04-26T20:27:34.672Z,9.17
2018-04-26T20:30:02.340Z,5.90
2018-04-26T20:32:30.548Z,5.87
2018-04-26T20:34:58.210Z,6.07
2018-04-26T20:37:25.855Z,6.60
2018-04-26T20:39:53.491Z,8.33
2018-04-26T20:42:21.517Z,10.80
2018-04-26T20:44:49.549Z,8.47
2018-04-26T20:47:18.715Z,7.07
2018-04-26T20:49:46.485Z,7.07
2018-04-26T20:52:14.148Z,10.13
2018-04-26T20:54:41.793Z,8.13
2018-04-26T20:57:09.642Z,7.67
2018-04-26T20:59:38.576Z,9.43
2018-04-26T21:02:06.256Z,11.30
2018-04-26T21:04:36.580Z,4.50
2018-04-26T21:07:04.360Z,9.20
2018-04-26T21:09:32.137Z,8.60
2018-04-26T21:12:00.234Z,6.23
2018-04-26T21:14:28.661Z,7.10
2018-04-26T21:16:56.332Z,8.27
2018-04-26T21:19:24.072Z,7.63
2018-04-26T21:21:51.877Z,4.37
2018-04-26T21:24:20.926Z,6.50
2018-04-26T21:26:49.868Z,7.27
2018-04-26T21:29:17.734Z,5.77
2018-04-26T21:31:47.404Z,8.80
2018-04-26T21:34:15.693Z,4.70
2018-04-26T21:36:43.352Z,3.97
2018-04-26T21:39:11.055Z,2.00
2018-04-26T21:41:38.672Z,3.73
2018-04-26T21:44:06.316Z,5.03
2018-04-26T21:46:33.900Z,5.57
2018-04-26T21:49:01.724Z,3.33
2018-04-26T21:51:34.812Z,6.23
2018-04-26T21:54:08.116Z,5.83
2018-04-26T21:56:41.319Z,8.07
2018-04-26T21:59:14.618Z,7.17
2018-04-26T22:01:49.568Z,4.23
2018-04-26T22:04:18.776Z,4.90
2018-04-26T22:06:46.436Z,6.07
2018-04-26T22:09:14.893Z,5.10
2018-04-26T22:11:42.864Z,4.10
2018-04-26T22:14:10.551Z,2.40
2018-04-26T22:16:38.166Z,2.10
2018-04-26T22:19:05.833Z,2.00
2018-04-26T22:21:33.460Z,5.60
2018-04-26T22:24:01.119Z,3.43
2018-04-26T22:26:28.732Z,3.80
2018-04-26T22:28:56.494Z,7.03
2018-04-26T22:31:24.139Z,6.70
2018-04-26T22:33:54.102Z,4.80
2018-04-26T22:36:23.076Z,6.60
2018-04-26T22:38:51.050Z,3.50
2018-04-26T22:41:22.162Z,5.27
2018-04-26T22:43:50.567Z,2.63
2018-04-26T22:46:18.188Z,2.23
2018-04-26T22:48:46.592Z,2.93
2018-04-26T22:51:15.524Z,2.20
2018-04-26T22:53:44.072Z,4.27
2018-04-26T22:56:11.784Z,3.50
2018-04-26T22:58:39.599Z,2.30
2018-04-26T23:01:07.250Z,3.30
2018-04-26T23:03:35.907Z,4.27
2018-04-26T23:06:04.000Z,3.87
2018-04-26T23:08:32.711Z,3.53
2018-04-26T23:11:00.335Z,3.07
2018-04-26T23:13:28.000Z,2.10
2018-04-26T23:15:55.871Z,2.73
2018-04-26T23:18:23.550Z,2.33
2018-04-26T23:20:52.093Z,2.33
2018-04-26T23:23:20.015Z,1.67
2018-04-26T23:25:48.435Z,2.13
2018-04-26T23:28:16.216Z,2.27
2018-04-26T23:30:44.025Z,2.73
2018-04-26T23:33:11.790Z,6.83
2018-04-26T23:35:39.416Z,3.87
2018-04-26T23:38:07.705Z,3.00
2018-04-26T23:40:35.342Z,3.00
2018-04-26T23:43:03.037Z,3.20
2018-04-26T23:45:30.640Z,1.60
2018-04-26T23:47:58.248Z,3.67
2018-04-26T23:50:48.448Z,3.87
2018-04-26T23:53:16.400Z,5.67
2018-04-26T23:55:44.027Z,4.07
2018-04-26T23:58:11.674Z,3.50
